createdAt,value
2022-09-26T00:00:44.298Z,0.00
2022-09-26T00:01:44.363Z,0.00
2022-09-26T00:02:44.383Z,0.00
2022-09-26T00:03:44.275Z,0.00
2022-09-26T00:04:44.258Z,0.00
2022-09-26T00:05:44.759Z,0.00
2022-09-26T00:06:44.266Z,0.00
2022-09-26T00:07:44.233Z,0.00
2022-09-26T00:08:44.209Z,0.00
2022-09-26T00:09:44.208Z,0.00
2022-09-26T00:10:44.188Z,0.00
2022-09-26T00:11:44.219Z,0.00
2022-09-26T00:12:44.810Z,0.00
2022-09-26T00:13:44.166Z,0.00
2022-09-26T00:14:44.178Z,0.00
2022-09-26T00:15:44.141Z,0.00
2022-09-26T00:16:44.261Z,0.00
2022-09-26T00:17:44.121Z,0.00
2022-09-26T00:18:44.101Z,0.00
2022-09-26T00:19:44.101Z,0.00
2022-09-26T00:20:44.081Z,0.00
2022-09-26T00:21:44.113Z,0.00
2022-09-26T00:22:44.069Z,0.00
2022-09-26T00:23:44.055Z,0.00
2022-09-26T00:24:44.042Z,0.00
2022-09-26T00:25:44.052Z,0.00
2022-09-26T00:26:44.051Z,0.00
2022-09-26T00:27:44.013Z,0.00
2022-09-26T00:28:44.002Z,0.00
2022-09-26T00:29:44.033Z,0.00
2022-09-26T00:30:44.000Z,0.00
2022-09-26T00:31:43.976Z,0.00
2022-09-26T00:32:43.952Z,0.00
2022-09-26T00:33:43.954Z,0.00
2022-09-26T00:34:43.972Z,0.00
2022-09-26T00:35:43.933Z,0.00
2022-09-26T00:36:43.916Z,0.00
2022-09-26T00:37:43.905Z,0.00
2022-09-26T00:38:43.895Z,0.00
2022-09-26T00:39:43.914Z,0.00
2022-09-26T00:40:43.890Z,0.00
2022-09-26T00:41:43.872Z,0.00
2022-09-26T00:42:43.844Z,0.00
2022-09-26T00:43:43.846Z,0.00
2022-09-26T00:44:43.881Z,0.00
2022-09-26T00:45:43.881Z,0.00
2022-09-26T00:46:43.813Z,0.00
2022-09-26T00:47:43.796Z,0.00
2022-09-26T00:48:43.786Z,0.00
2022-09-26T00:49:43.776Z,0.00
2022-09-26T00:50:43.796Z,0.00
2022-09-26T00:51:43.788Z,0.00
2022-09-26T00:52:43.736Z,0.00
2022-09-26T00:53:43.746Z,0.00
2022-09-26T00:54:43.748Z,0.00
2022-09-26T00:55:43.717Z,0.00
2022-09-26T00:56:43.726Z,0.00
2022-09-26T00:57:43.687Z,0.00
2022-09-26T00:58:43.677Z,0.00
2022-09-26T00:59:43.671Z,0.00
2022-09-26T01:00:43.657Z,0.00
2022-09-26T01:01:43.813Z,0.00
2022-09-26T01:02:43.714Z,0.00
2022-09-26T01:03:43.628Z,0.00
2022-09-26T01:04:43.610Z,0.00
2022-09-26T01:05:43.618Z,0.00
2022-09-26T01:06:43.628Z,0.00
2022-09-26T01:07:43.589Z,0.00
2022-09-26T01:08:43.576Z,0.00
2022-09-26T01:09:43.569Z,0.00
2022-09-26T01:10:43.550Z,0.00
2022-09-26T01:11:43.569Z,0.00
2022-09-26T01:12:43.560Z,0.00
2022-09-26T01:13:43.529Z,0.00
2022-09-26T01:14:43.510Z,0.00
2022-09-26T01:15:43.538Z,0.00
2022-09-26T01:16:43.537Z,0.00
2022-09-26T01:17:43.511Z,0.00
2022-09-26T01:18:43.485Z,0.00
2022-09-26T01:19:43.468Z,0.00
2022-09-26T01:20:43.442Z,0.00
2022-09-26T01:21:43.441Z,0.00
2022-09-26T01:22:43.422Z,0.00
2022-09-26T01:23:43.421Z,0.00
2022-09-26T01:24:43.400Z,0.00
2022-09-26T01:25:43.391Z,0.00
2022-09-26T01:26:43.438Z,0.00
2022-09-26T01:27:43.371Z,0.00
2022-09-26T01:28:43.383Z,0.00
2022-09-26T01:29:43.354Z,0.00
2022-09-26T01:30:43.399Z,0.00
2022-09-26T01:31:43.331Z,0.00
2022-09-26T01:32:43.363Z,0.00
2022-09-26T01:33:43.290Z,0.00
2022-09-26T01:34:43.291Z,0.00
2022-09-26T01:35:43.299Z,0.00
2022-09-26T01:36:43.267Z,0.00
2022-09-26T01:37:43.261Z,0.00
2022-09-26T01:38:43.253Z,0.00
2022-09-26T01:39:43.233Z,0.00
2022-09-26T01:40:43.320Z,0.00
2022-09-26T01:41:43.230Z,0.00
2022-09-26T01:42:43.212Z,0.00
2022-09-26T01:43:43.181Z,0.00
2022-09-26T01:44:43.183Z,0.00
2022-09-26T01:45:43.225Z,0.00
2022-09-26T01:46:43.162Z,0.00
2022-09-26T01:47:43.157Z,0.00
2022-09-26T01:48:43.134Z,0.00
2022-09-26T01:49:43.131Z,0.00
2022-09-26T01:50:43.122Z,0.00
2022-09-26T01:51:43.112Z,0.00
2022-09-26T01:52:43.110Z,0.00
2022-09-26T01:53:43.073Z,0.00
2022-09-26T01:54:43.071Z,0.00
2022-09-26T01:55:43.054Z,0.00
2022-09-26T01:56:43.073Z,0.00
2022-09-26T01:57:43.044Z,0.00
2022-09-26T01:58:43.024Z,0.00
2022-09-26T01:59:43.006Z,0.00
2022-09-26T02:00:43.050Z,0.00
2022-09-26T02:01:43.092Z,0.00
2022-09-26T02:02:43.072Z,0.00
2022-09-26T02:03:42.964Z,0.00
2022-09-26T02:04:42.983Z,0.00
2022-09-26T02:05:42.963Z,0.00
2022-09-26T02:06:42.941Z,0.00
2022-09-26T02:07:42.947Z,0.00
2022-09-26T02:08:42.924Z,0.00
2022-09-26T02:09:42.918Z,0.00
2022-09-26T02:10:42.925Z,0.00
2022-09-26T02:11:42.895Z,0.00
2022-09-26T02:12:42.877Z,0.00
2022-09-26T02:13:42.883Z,0.00
2022-09-26T02:14:42.867Z,0.00
2022-09-26T02:15:42.867Z,0.00
2022-09-26T02:16:42.925Z,0.00
2022-09-26T02:17:42.839Z,0.00
2022-09-26T02:18:42.827Z,0.00
2022-09-26T02:19:42.828Z,0.00
2022-09-26T02:20:42.808Z,0.00
2022-09-26T02:21:42.776Z,0.00
2022-09-26T02:22:42.767Z,0.00
2022-09-26T02:23:42.767Z,0.00
2022-09-26T02:24:42.751Z,0.00
2022-09-26T02:25:42.758Z,0.00
2022-09-26T02:26:42.730Z,0.00
2022-09-26T02:27:42.730Z,0.00
2022-09-26T02:28:42.727Z,0.00
2022-09-26T02:29:42.706Z,0.00
2022-09-26T02:30:42.709Z,0.00
2022-09-26T02:31:42.783Z,0.00
2022-09-26T02:32:42.681Z,0.00
2022-09-26T02:33:42.677Z,0.00
2022-09-26T02:34:42.652Z,0.00
2022-09-26T02:35:42.630Z,0.00
2022-09-26T02:36:42.622Z,0.00
2022-09-26T02:37:42.640Z,0.00
2022-09-26T02:38:43.270Z,0.00
2022-09-26T02:39:42.602Z,0.00
2022-09-26T02:40:42.669Z,0.00
2022-09-26T02:41:42.579Z,0.00
2022-09-26T02:42:42.571Z,0.00
2022-09-26T02:43:42.570Z,0.00
2022-09-26T02:44:42.553Z,0.00
2022-09-26T02:45:42.565Z,0.00
2022-09-26T02:46:42.522Z,0.00
2022-09-26T02:47:42.542Z,0.00
2022-09-26T02:48:42.502Z,0.00
2022-09-26T02:49:42.510Z,0.00
2022-09-26T02:50:42.494Z,0.00
2022-09-26T02:51:42.492Z,0.00
2022-09-26T02:52:42.464Z,0.00
2022-09-26T02:53:42.447Z,0.00
2022-09-26T02:54:42.442Z,0.00
2022-09-26T02:55:42.423Z,0.00
2022-09-26T02:56:42.432Z,0.00
2022-09-26T02:57:42.414Z,0.00
2022-09-26T02:58:42.394Z,0.00
2022-09-26T02:59:42.374Z,0.00
2022-09-26T03:00:42.414Z,0.00
2022-09-26T03:01:42.421Z,0.00
2022-09-26T03:02:42.344Z,0.00
2022-09-26T03:03:42.366Z,0.00
2022-09-26T03:04:42.373Z,0.00
2022-09-26T03:05:42.315Z,0.00
2022-09-26T03:06:42.304Z,0.00
2022-09-26T03:07:42.317Z,0.00
2022-09-26T03:08:42.296Z,0.00
2022-09-26T03:09:42.296Z,0.00
2022-09-26T03:10:42.269Z,0.00
2022-09-26T03:11:42.266Z,0.00
2022-09-26T03:12:42.265Z,0.00
2022-09-26T03:13:42.233Z,0.00
2022-09-26T03:14:42.233Z,0.00
2022-09-26T03:15:42.236Z,0.00
2022-09-26T03:16:42.289Z,0.00
2022-09-26T03:17:42.178Z,0.00
2022-09-26T03:18:42.187Z,0.00
2022-09-26T03:19:42.175Z,0.00
2022-09-26T03:20:42.194Z,0.00
2022-09-26T03:21:42.138Z,0.00
2022-09-26T03:22:42.139Z,0.00
2022-09-26T03:23:42.117Z,0.00
2022-09-26T03:24:42.108Z,0.00
2022-09-26T03:25:42.109Z,0.00
2022-09-26T03:26:42.111Z,0.00
2022-09-26T03:27:42.068Z,0.00
2022-09-26T03:28:42.079Z,0.00
2022-09-26T03:29:42.081Z,0.00
2022-09-26T03:30:42.075Z,0.00
2022-09-26T03:31:42.072Z,0.00
2022-09-26T03:32:42.049Z,0.00
2022-09-26T03:33:42.039Z,0.00
2022-09-26T03:34:42.019Z,0.00
2022-09-26T03:35:42.001Z,0.00
2022-09-26T03:36:41.990Z,0.00
2022-09-26T03:37:41.980Z,0.00
2022-09-26T03:38:41.988Z,0.00
2022-09-26T03:39:41.960Z,0.00
2022-09-26T03:40:42.016Z,0.00
2022-09-26T03:41:41.931Z,0.00
2022-09-26T03:42:41.921Z,0.00
2022-09-26T03:43:41.931Z,0.00
2022-09-26T03:44:41.932Z,0.00
2022-09-26T03:45:41.914Z,0.00
2022-09-26T03:46:41.891Z,0.00
2022-09-26T03:47:41.923Z,0.00
2022-09-26T03:48:41.852Z,0.00
2022-09-26T03:49:41.862Z,0.00
2022-09-26T03:50:41.853Z,0.00
2022-09-26T03:51:41.823Z,0.00
2022-09-26T03:52:41.852Z,0.00
2022-09-26T03:53:41.814Z,0.00
2022-09-26T03:54:41.793Z,0.00
2022-09-26T03:55:41.804Z,0.00
2022-09-26T03:56:41.792Z,0.00
2022-09-26T03:57:41.834Z,0.00
2022-09-26T03:58:41.768Z,0.00
2022-09-26T03:59:41.744Z,0.00
2022-09-26T04:00:41.818Z,0.00
2022-09-26T04:01:41.721Z,0.00
2022-09-26T04:02:41.758Z,0.00
2022-09-26T04:03:45.205Z,0.00
2022-09-26T04:04:42.686Z,0.00
2022-09-26T04:05:41.685Z,0.00
2022-09-26T04:06:41.665Z,0.00
2022-09-26T04:07:41.665Z,0.00
2022-09-26T04:08:41.679Z,0.00
2022-09-26T04:09:41.626Z,0.00
2022-09-26T04:10:41.637Z,0.00
2022-09-26T04:11:41.607Z,0.00
2022-09-26T04:12:41.596Z,0.00
2022-09-26T04:13:51.436Z,0.00
2022-09-26T04:14:42.576Z,0.00
2022-09-26T04:15:41.576Z,0.00
2022-09-26T04:16:41.623Z,0.00
2022-09-26T04:17:41.537Z,0.00
2022-09-26T04:18:41.537Z,0.00
2022-09-26T04:19:41.524Z,0.00
2022-09-26T04:20:41.547Z,0.00
2022-09-26T04:21:41.515Z,0.00
2022-09-26T04:22:41.496Z,0.00
2022-09-26T04:23:41.477Z,0.00
2022-09-26T04:24:41.478Z,0.00
2022-09-26T04:25:41.468Z,0.00
2022-09-26T04:26:41.468Z,0.00
2022-09-26T04:27:41.458Z,0.00
2022-09-26T04:28:41.438Z,0.00
2022-09-26T04:29:41.416Z,0.00
2022-09-26T04:30:41.418Z,0.00
2022-09-26T04:31:41.463Z,0.00
2022-09-26T04:32:41.399Z,0.00
2022-09-26T04:33:41.390Z,0.00
2022-09-26T04:34:41.386Z,0.00
2022-09-26T04:35:41.389Z,0.00
2022-09-26T04:36:41.351Z,0.00
2022-09-26T04:37:41.330Z,0.00
2022-09-26T04:38:41.352Z,0.00
2022-09-26T04:39:41.321Z,0.00
2022-09-26T04:40:42.927Z,0.00
2022-09-26T04:41:41.281Z,0.00
2022-09-26T04:42:41.290Z,0.00
2022-09-26T04:43:41.302Z,0.00
2022-09-26T04:44:41.260Z,0.00
2022-09-26T04:45:41.329Z,0.00
2022-09-26T04:46:41.253Z,0.00
2022-09-26T04:47:41.219Z,0.00
2022-09-26T04:48:41.232Z,0.00
2022-09-26T04:49:41.235Z,0.00
2022-09-26T04:50:41.191Z,0.00
2022-09-26T04:51:41.191Z,4.00
2022-09-26T04:52:41.201Z,4.00
2022-09-26T04:53:41.164Z,0.00
2022-09-26T04:54:41.144Z,4.00
2022-09-26T04:55:41.153Z,4.00
2022-09-26T04:56:41.133Z,4.00
2022-09-26T04:57:41.152Z,4.00
2022-09-26T04:58:41.125Z,4.00
2022-09-26T04:59:41.093Z,8.00
2022-09-26T05:00:41.121Z,12.00
2022-09-26T05:01:41.143Z,12.00
2022-09-26T05:02:41.166Z,16.00
2022-09-26T05:03:41.043Z,20.00
2022-09-26T05:04:41.073Z,24.00
2022-09-26T05:05:41.053Z,28.00
2022-09-26T05:06:41.038Z,32.00
2022-09-26T05:07:41.023Z,36.00
2022-09-26T05:08:41.013Z,44.00
2022-09-26T05:09:41.004Z,48.00
2022-09-26T05:10:40.994Z,56.00
2022-09-26T05:11:40.966Z,64.00
2022-09-26T05:12:40.964Z,68.00
2022-09-26T05:13:40.952Z,80.00
2022-09-26T05:14:40.954Z,88.00
2022-09-26T05:15:40.932Z,100.00
2022-09-26T05:16:41.015Z,112.00
2022-09-26T05:17:40.904Z,116.00
2022-09-26T05:18:40.907Z,128.00
2022-09-26T05:19:40.876Z,140.00
2022-09-26T05:20:40.867Z,148.00
2022-09-26T05:21:40.858Z,160.00
2022-09-26T05:22:40.867Z,172.00
2022-09-26T05:23:44.553Z,184.00
2022-09-26T05:24:40.828Z,196.00
2022-09-26T05:25:40.825Z,208.00
2022-09-26T05:26:40.806Z,220.00
2022-09-26T05:27:40.789Z,236.00
2022-09-26T05:28:40.797Z,248.00
2022-09-26T05:29:40.776Z,260.00
2022-09-26T05:30:40.784Z,276.00
2022-09-26T05:31:40.841Z,296.00
2022-09-26T05:32:40.749Z,316.00
2022-09-26T05:33:40.737Z,336.00
2022-09-26T05:34:40.734Z,356.00
2022-09-26T05:35:40.717Z,372.00
2022-09-26T05:36:40.709Z,388.00
2022-09-26T05:37:40.700Z,408.00
2022-09-26T05:38:40.708Z,432.00
2022-09-26T05:39:42.622Z,448.00
2022-09-26T05:40:40.786Z,460.00
2022-09-26T05:41:40.658Z,468.00
2022-09-26T05:42:40.668Z,484.00
2022-09-26T05:43:40.638Z,500.00
2022-09-26T05:44:40.897Z,512.00
2022-09-26T05:45:40.608Z,524.00
2022-09-26T05:46:41.372Z,540.00
2022-09-26T05:47:40.630Z,556.00
2022-09-26T05:48:41.371Z,576.00
2022-09-26T05:49:40.593Z,600.00
2022-09-26T05:50:43.527Z,624.00
2022-09-26T05:51:40.568Z,644.00
2022-09-26T05:52:41.326Z,660.00
2022-09-26T05:53:40.550Z,688.00
2022-09-26T05:54:41.220Z,716.00
2022-09-26T05:55:40.595Z,760.00
2022-09-26T05:56:40.639Z,788.00
2022-09-26T05:57:40.478Z,816.00
2022-09-26T05:58:40.472Z,836.00
2022-09-26T05:59:40.469Z,864.00
2022-09-26T06:00:40.462Z,876.00
2022-09-26T06:01:40.505Z,904.00
2022-09-26T06:02:40.431Z,924.00
2022-09-26T06:03:40.422Z,936.00
2022-09-26T06:04:40.412Z,952.00
2022-09-26T06:05:40.389Z,972.00
2022-09-26T06:06:40.402Z,976.00
2022-09-26T06:07:40.833Z,980.00
2022-09-26T06:08:40.372Z,1000.00
2022-09-26T06:09:40.353Z,1012.00
2022-09-26T06:10:40.344Z,1024.00
2022-09-26T06:11:40.353Z,1048.00
2022-09-26T06:12:40.335Z,1064.00
2022-09-26T06:13:40.305Z,1080.00
2022-09-26T06:14:40.311Z,1104.00
2022-09-26T06:15:40.295Z,1124.00
2022-09-26T06:16:40.355Z,1156.00
2022-09-26T06:17:40.275Z,1180.00
2022-09-26T06:18:40.271Z,1188.00
2022-09-26T06:19:40.254Z,1212.00
2022-09-26T06:20:40.244Z,1252.00
2022-09-26T06:21:40.268Z,1280.00
2022-09-26T06:22:40.215Z,1304.00
2022-09-26T06:23:40.239Z,1300.00
2022-09-26T06:24:40.195Z,1284.00
2022-09-26T06:25:40.185Z,1280.00
2022-09-26T06:26:40.179Z,1292.00
2022-09-26T06:27:40.165Z,1304.00
2022-09-26T06:28:40.155Z,1312.00
2022-09-26T06:29:40.164Z,1336.00
2022-09-26T06:30:40.141Z,1352.00
2022-09-26T06:31:40.192Z,1376.00
2022-09-26T06:32:40.118Z,1384.00
2022-09-26T06:33:40.107Z,1388.00
2022-09-26T06:34:40.086Z,1376.00
2022-09-26T06:35:40.094Z,1392.00
2022-09-26T06:36:40.133Z,1400.00
2022-09-26T06:37:40.047Z,1404.00
2022-09-26T06:38:40.035Z,1416.00
2022-09-26T06:39:40.040Z,1412.00
2022-09-26T06:40:40.108Z,1460.00
2022-09-26T06:41:40.009Z,1516.00
2022-09-26T06:42:39.989Z,1604.00
2022-09-26T06:43:39.998Z,1660.00
2022-09-26T06:44:40.024Z,1704.00
2022-09-26T06:45:39.978Z,1748.00
2022-09-26T06:46:39.991Z,1772.00
2022-09-26T06:47:39.946Z,1816.00
2022-09-26T06:48:39.938Z,1880.00
2022-09-26T06:49:39.920Z,1908.00
2022-09-26T06:50:39.930Z,1964.00
2022-09-26T06:51:39.907Z,1992.00
2022-09-26T06:52:39.879Z,2028.00
2022-09-26T06:53:39.912Z,2040.00
2022-09-26T06:54:39.869Z,2040.00
2022-09-26T06:55:39.871Z,2060.00
2022-09-26T06:56:39.860Z,2112.00
2022-09-26T06:57:39.839Z,2180.00
2022-09-26T06:58:39.860Z,2220.00
2022-09-26T06:59:39.818Z,2240.00
2022-09-26T07:00:39.966Z,2256.00
2022-09-26T07:01:39.996Z,2312.00
2022-09-26T07:02:39.786Z,2336.00
2022-09-26T07:03:45.112Z,2344.00
2022-09-26T07:04:40.760Z,2408.00
2022-09-26T07:05:39.772Z,2492.00
2022-09-26T07:06:39.749Z,2564.00
2022-09-26T07:07:39.731Z,2588.00
2022-09-26T07:09:00.807Z,2652.00
2022-09-26T07:09:40.710Z,2704.00
2022-09-26T07:10:39.722Z,2780.00
2022-09-26T07:12:02.685Z,2860.00
2022-09-26T07:12:40.671Z,2876.00
2022-09-26T07:13:39.723Z,2872.00
2022-09-26T07:14:39.692Z,2928.00
2022-09-26T07:15:39.643Z,2984.00
2022-09-26T07:16:39.694Z,3072.00
2022-09-26T07:17:39.643Z,3156.00
2022-09-26T07:18:39.614Z,3208.00
2022-09-26T07:19:39.621Z,3208.00
2022-09-26T07:20:39.594Z,3256.00
2022-09-26T07:21:39.592Z,3204.00
2022-09-26T07:22:39.574Z,3052.00
2022-09-26T07:23:39.582Z,2892.00
2022-09-26T07:24:39.574Z,2840.00
2022-09-26T07:25:39.565Z,2832.00
2022-09-26T07:26:39.534Z,2932.00
2022-09-26T07:27:39.575Z,2948.00
2022-09-26T07:28:39.525Z,3120.00
2022-09-26T07:29:39.505Z,3196.00
2022-09-26T07:30:39.485Z,3444.00
2022-09-26T07:31:39.581Z,3496.00
2022-09-26T07:32:39.456Z,3536.00
2022-09-26T07:33:39.453Z,3620.00
2022-09-26T07:34:39.459Z,3640.00
2022-09-26T07:35:39.479Z,3704.00
2022-09-26T07:36:39.441Z,3760.00
2022-09-26T07:37:39.418Z,3792.00
2022-09-26T07:38:39.408Z,3752.00
2022-09-26T07:39:39.497Z,3712.00
2022-09-26T07:40:39.405Z,3636.00
2022-09-26T07:41:39.377Z,3564.00
2022-09-26T07:42:39.385Z,3676.00
2022-09-26T07:45:20.394Z,3780.00
2022-09-26T07:45:40.329Z,3852.00
2022-09-26T07:46:39.385Z,3832.00
2022-09-26T07:47:39.311Z,3856.00
2022-09-26T07:48:39.298Z,3804.00
2022-09-26T07:49:39.322Z,3856.00
2022-09-26T07:50:39.301Z,3916.00
2022-09-26T07:51:39.259Z,4008.00
2022-09-26T07:52:39.262Z,4072.00
2022-09-26T07:53:39.260Z,4160.00
2022-09-26T07:54:39.228Z,4168.00
2022-09-26T07:55:39.233Z,4116.00
2022-09-26T07:56:39.210Z,4080.00
2022-09-26T07:57:39.210Z,4048.00
2022-09-26T07:58:39.189Z,4040.00
2022-09-26T07:59:39.198Z,4116.00
2022-09-26T08:00:39.190Z,4128.00
2022-09-26T08:01:39.257Z,4148.00
2022-09-26T08:02:39.182Z,4308.00
2022-09-26T08:03:39.142Z,4360.00
2022-09-26T08:04:39.112Z,4368.00
2022-09-26T08:05:39.140Z,4408.00
2022-09-26T08:06:39.123Z,4424.00
2022-09-26T08:07:39.101Z,4404.00
2022-09-26T08:08:39.084Z,4496.00
2022-09-26T08:09:39.083Z,4544.00
2022-09-26T08:10:39.090Z,4568.00
2022-09-26T08:11:39.043Z,4476.00
2022-09-26T08:12:39.034Z,4468.00
2022-09-26T08:13:39.035Z,4548.00
2022-09-26T08:14:39.014Z,4568.00
2022-09-26T08:15:39.109Z,4608.00
2022-09-26T08:16:39.124Z,4692.00
2022-09-26T08:17:38.984Z,4736.00
2022-09-26T08:18:38.984Z,4844.00
2022-09-26T08:19:38.962Z,4948.00
2022-09-26T08:20:39.004Z,4912.00
2022-09-26T08:21:38.942Z,4940.00
2022-09-26T08:22:38.925Z,4964.00
2022-09-26T08:23:38.927Z,5028.00
2022-09-26T08:24:38.929Z,5052.00
2022-09-26T08:25:38.906Z,5024.00
2022-09-26T08:26:43.873Z,5096.00
2022-09-26T08:27:39.886Z,5164.00
2022-09-26T08:28:38.866Z,5232.00
2022-09-26T08:29:38.854Z,5372.00
2022-09-26T08:30:38.868Z,5404.00
2022-09-26T08:31:38.901Z,5332.00
2022-09-26T08:32:38.829Z,5296.00
2022-09-26T08:33:39.030Z,5240.00
2022-09-26T08:34:38.817Z,5152.00
2022-09-26T08:35:38.789Z,5076.00
2022-09-26T08:36:38.797Z,5140.00
2022-09-26T08:37:38.788Z,5152.00
2022-09-26T08:38:38.761Z,5016.00
2022-09-26T08:39:38.738Z,4896.00
2022-09-26T08:40:38.794Z,4808.00
2022-09-26T08:41:38.739Z,4516.00
2022-09-26T08:42:38.710Z,4272.00
2022-09-26T08:43:38.722Z,4204.00
2022-09-26T08:44:38.722Z,4152.00
2022-09-26T08:45:42.094Z,4088.00
2022-09-26T08:46:39.735Z,4040.00
2022-09-26T08:47:39.084Z,4072.00
2022-09-26T08:48:38.653Z,4032.00
2022-09-26T08:49:39.370Z,3968.00
2022-09-26T08:50:38.629Z,4028.00
2022-09-26T08:51:39.370Z,4084.00
2022-09-26T08:52:38.613Z,4092.00
2022-09-26T08:53:39.237Z,4192.00
2022-09-26T08:54:38.593Z,4444.00
2022-09-26T08:55:38.673Z,4724.00
2022-09-26T08:56:38.582Z,4964.00
2022-09-26T08:57:38.551Z,4880.00
2022-09-26T08:58:38.553Z,4644.00
2022-09-26T08:59:38.532Z,4420.00
2022-09-26T09:00:38.523Z,4096.00
2022-09-26T09:01:38.691Z,3712.00
2022-09-26T09:02:38.708Z,3572.00
2022-09-26T09:03:38.494Z,3288.00
2022-09-26T09:04:38.491Z,3092.00
2022-09-26T09:05:38.465Z,2876.00
2022-09-26T09:06:38.458Z,2488.00
2022-09-26T09:07:38.445Z,2176.00
2022-09-26T09:08:38.455Z,2068.00
2022-09-26T09:09:38.454Z,2008.00
2022-09-26T09:10:38.426Z,1964.00
2022-09-26T09:11:38.428Z,1944.00
2022-09-26T09:12:38.396Z,1944.00
2022-09-26T09:13:38.383Z,1952.00
2022-09-26T09:14:38.364Z,1980.00
2022-09-26T09:15:38.431Z,2024.00
2022-09-26T09:16:38.358Z,2028.00
2022-09-26T09:17:38.437Z,2072.00
2022-09-26T09:18:38.317Z,2004.00
2022-09-26T09:19:38.334Z,1984.00
2022-09-26T09:20:38.315Z,1968.00
2022-09-26T09:21:41.831Z,1972.00
2022-09-26T09:22:38.290Z,1992.00
2022-09-26T09:23:38.287Z,1992.00
2022-09-26T09:24:38.249Z,1980.00
2022-09-26T09:25:38.257Z,1992.00
2022-09-26T09:27:55.009Z,2148.00
2022-09-26T09:28:39.227Z,2144.00
2022-09-26T09:29:38.229Z,2144.00
2022-09-26T09:30:38.189Z,2156.00
2022-09-26T09:31:38.226Z,2180.00
2022-09-26T09:32:38.179Z,2276.00
2022-09-26T09:33:38.193Z,2740.00
2022-09-26T09:34:38.164Z,2712.00
2022-09-26T09:35:38.150Z,2544.00
2022-09-26T09:36:38.130Z,2468.00
2022-09-26T09:37:38.146Z,2492.00
2022-09-26T09:38:38.112Z,3032.00
2022-09-26T09:39:38.110Z,3808.00
2022-09-26T09:40:38.196Z,3580.00
2022-09-26T09:41:38.093Z,4368.00
2022-09-26T09:42:38.061Z,3560.00
2022-09-26T09:43:38.062Z,3484.00
2022-09-26T09:44:39.391Z,3948.00
2022-09-26T09:45:38.062Z,4056.00
2022-09-26T09:46:38.101Z,4060.00
2022-09-26T09:47:38.031Z,4308.00
2022-09-26T09:48:37.993Z,4756.00
2022-09-26T09:49:38.003Z,5348.00
2022-09-26T09:50:37.991Z,5564.00
2022-09-26T09:51:39.412Z,5244.00
2022-09-26T09:52:37.983Z,4548.00
2022-09-26T09:53:37.943Z,4760.00
2022-09-26T09:54:39.493Z,4900.00
2022-09-26T09:55:37.935Z,5836.00
2022-09-26T09:56:38.634Z,5544.00
2022-09-26T09:57:37.914Z,5272.00
2022-09-26T09:58:38.916Z,5392.00
2022-09-26T09:59:37.917Z,4552.00
2022-09-26T10:00:38.895Z,5280.00
2022-09-26T10:01:37.896Z,5300.00
2022-09-26T10:02:37.937Z,5492.00
2022-09-26T10:03:37.880Z,5188.00
2022-09-26T10:04:37.844Z,5388.00
2022-09-26T10:05:37.846Z,5308.00
2022-09-26T10:06:45.503Z,4884.00
2022-09-26T10:07:38.806Z,3540.00
2022-09-26T10:08:37.798Z,3052.00
2022-09-26T10:09:40.039Z,2916.00
2022-09-26T10:10:37.779Z,3156.00
2022-09-26T10:11:37.748Z,3876.00
2022-09-26T10:12:37.758Z,4576.00
2022-09-26T10:13:37.738Z,4764.00
2022-09-26T10:14:37.738Z,6068.00
2022-09-26T10:15:37.740Z,6728.00
2022-09-26T10:16:37.718Z,6648.00
2022-09-26T10:17:37.719Z,6412.00
2022-09-26T10:18:37.679Z,7060.00
2022-09-26T10:19:37.680Z,6440.00
2022-09-26T10:20:37.669Z,5516.00
2022-09-26T10:21:37.690Z,4524.00
2022-09-26T10:22:37.680Z,4160.00
2022-09-26T10:23:37.630Z,3920.00
2022-09-26T10:24:37.640Z,3720.00
2022-09-26T10:25:37.600Z,3468.00
2022-09-26T10:26:37.591Z,3384.00
2022-09-26T10:27:37.611Z,3292.00
2022-09-26T10:28:37.570Z,3884.00
2022-09-26T10:29:37.571Z,4220.00
2022-09-26T10:30:37.571Z,5072.00
2022-09-26T10:31:41.993Z,6068.00
2022-09-26T10:32:38.529Z,7488.00
2022-09-26T10:33:37.520Z,9116.00
2022-09-26T10:34:37.524Z,10040.00
2022-09-26T10:35:37.515Z,9956.00
2022-09-26T10:36:37.485Z,9952.00
2022-09-26T10:37:37.473Z,8956.00
2022-09-26T10:38:37.474Z,8324.00
2022-09-26T10:39:37.464Z,8208.00
2022-09-26T10:40:37.570Z,8196.00
2022-09-26T10:41:37.442Z,7680.00
2022-09-26T10:42:37.424Z,6764.00
2022-09-26T10:43:37.405Z,5820.00
2022-09-26T10:44:37.416Z,5264.00
2022-09-26T10:45:37.385Z,5000.00
2022-09-26T10:46:37.446Z,5876.00
2022-09-26T10:47:37.376Z,6908.00
2022-09-26T10:48:37.356Z,6976.00
2022-09-26T10:49:37.371Z,6640.00
2022-09-26T10:50:37.337Z,7020.00
2022-09-26T10:51:37.335Z,7344.00
2022-09-26T10:52:37.325Z,7408.00
2022-09-26T10:53:37.297Z,7648.00
2022-09-26T10:54:37.312Z,6896.00
2022-09-26T10:55:37.328Z,5984.00
2022-09-26T10:56:37.287Z,5384.00
2022-09-26T10:57:37.259Z,4680.00
2022-09-26T10:58:37.270Z,3888.00
2022-09-26T10:59:37.250Z,4172.00
2022-09-26T11:00:37.249Z,4816.00
2022-09-26T11:01:37.271Z,5820.00
2022-09-26T11:02:37.240Z,7192.00
2022-09-26T11:03:37.252Z,8496.00
2022-09-26T11:04:37.228Z,9784.00
2022-09-26T11:05:37.178Z,9984.00
2022-09-26T11:06:37.191Z,7616.00
2022-09-26T11:07:37.202Z,5760.00
2022-09-26T11:08:37.149Z,5648.00
2022-09-26T11:09:37.170Z,6056.00
2022-09-26T11:10:37.141Z,5236.00
2022-09-26T11:11:37.124Z,3840.00
2022-09-26T11:12:37.112Z,3616.00
2022-09-26T11:13:37.102Z,3904.00
2022-09-26T11:14:37.103Z,5040.00
2022-09-26T11:15:37.122Z,6904.00
2022-09-26T11:16:37.461Z,8700.00
2022-09-26T11:17:37.044Z,10316.00
2022-09-26T11:18:37.054Z,11512.00
2022-09-26T11:19:37.042Z,12392.00
2022-09-26T11:20:37.022Z,12500.00
2022-09-26T11:21:37.024Z,11772.00
2022-09-26T11:22:37.005Z,11172.00
2022-09-26T11:23:36.995Z,10856.00
2022-09-26T11:24:36.986Z,9700.00
2022-09-26T11:25:36.975Z,8432.00
2022-09-26T11:26:36.955Z,7712.00
2022-09-26T11:27:36.935Z,7228.00
2022-09-26T11:28:36.936Z,7684.00
2022-09-26T11:29:36.934Z,6220.00
2022-09-26T11:30:36.916Z,5368.00
2022-09-26T11:31:37.021Z,5316.00
2022-09-26T11:32:36.917Z,5408.00
2022-09-26T11:33:36.888Z,5512.00
2022-09-26T11:34:36.895Z,5668.00
2022-09-26T11:35:36.856Z,5856.00
2022-09-26T11:36:36.854Z,6108.00
2022-09-26T11:37:37.008Z,6528.00
2022-09-26T11:38:36.828Z,7124.00
2022-09-26T11:39:36.819Z,8064.00
2022-09-26T11:40:36.947Z,10260.00
2022-09-26T11:41:36.847Z,11460.00
2022-09-26T11:42:36.791Z,12036.00
2022-09-26T11:43:36.760Z,12612.00
2022-09-26T11:44:36.750Z,14552.00
2022-09-26T11:45:40.928Z,15520.00
2022-09-26T11:46:37.824Z,19040.00
2022-09-26T11:47:36.731Z,14312.00
2022-09-26T11:48:36.723Z,18048.00
2022-09-26T11:49:36.722Z,8768.00
2022-09-26T11:50:36.692Z,7376.00
2022-09-26T11:51:36.709Z,6732.00
2022-09-26T11:52:36.692Z,7036.00
2022-09-26T11:53:36.664Z,6908.00
2022-09-26T11:54:36.654Z,9256.00
2022-09-26T11:55:36.633Z,3884.00
2022-09-26T11:56:36.647Z,2936.00
2022-09-26T11:57:36.914Z,2164.00
2022-09-26T11:58:36.612Z,1980.00
2022-09-26T11:59:36.618Z,1648.00
2022-09-26T12:00:36.592Z,1316.00
2022-09-26T12:01:36.585Z,1188.00
2022-09-26T12:02:36.706Z,1172.00
2022-09-26T12:03:36.756Z,1184.00
2022-09-26T12:04:36.549Z,1216.00
2022-09-26T12:05:36.544Z,1376.00
2022-09-26T12:06:36.538Z,1504.00
2022-09-26T12:07:36.548Z,1428.00
2022-09-26T12:08:36.506Z,1280.00
2022-09-26T12:09:36.506Z,1284.00
2022-09-26T12:10:36.497Z,1544.00
2022-09-26T12:11:36.487Z,2136.00
2022-09-26T12:12:40.459Z,3160.00
2022-09-26T12:13:36.468Z,4784.00
2022-09-26T12:14:36.445Z,6808.00
2022-09-26T12:15:36.491Z,13076.00
2022-09-26T12:16:36.436Z,17472.00
2022-09-26T12:17:36.482Z,16224.00
2022-09-26T12:18:36.439Z,16352.00
2022-09-26T12:19:36.390Z,12972.00
2022-09-26T12:20:36.390Z,15220.00
2022-09-26T12:21:36.373Z,108640.00
2022-09-26T12:22:36.396Z,25216.00
2022-09-26T12:23:36.342Z,18400.00
2022-09-26T12:24:36.363Z,44128.00
2022-09-26T12:25:36.342Z,79328.00
2022-09-26T12:26:36.321Z,88960.00
2022-09-26T12:27:36.311Z,39424.00
2022-09-26T12:28:36.283Z,97216.00
2022-09-26T12:29:36.282Z,98944.00
2022-09-26T12:30:36.294Z,104192.00
2022-09-26T12:31:36.326Z,93792.00
2022-09-26T12:32:36.283Z,93696.00
2022-09-26T12:33:36.243Z,97888.00
2022-09-26T12:34:36.245Z,96512.00
2022-09-26T12:35:36.214Z,92960.00
2022-09-26T12:36:36.217Z,95648.00